SUR4070 SPZO-SPJC
Flight info
| Callsign | SUR4070 |
|---|---|
| Flight time | N/A |
| Altitude | 26000 |
| Route | GAXU1B GAXUN UT321 UDENI UT332 PEROV PEROV6 |
| Aircraft | E175/L-S/1200 |
Departure
| Time | 2026-04-26 16:36 |
|---|---|
| Airport | Alejandro Velasco Astete International Airport (SPZO) |
Arrival
| Time | N/A |
|---|---|
| Airport | Jorge Chávez International Airport (SPJC) |
| Time | Latitude | Longitude | Altitude | Speed | Heading |
|---|---|---|---|---|---|
| 2026-04-26 16:22 | -13.53720 | -71.94203 | 10836 ft | 0 kts | 186° |
| 2026-04-26 16:22 | -13.53721 | -71.94203 | 10836 ft | 0 kts | 185° |
| 2026-04-26 16:22 | -13.53737 | -71.94205 | 10836 ft | 5 kts | 185° |
| 2026-04-26 16:23 | -13.53760 | -71.94216 | 10837 ft | 2 kts | 236° |
| 2026-04-26 16:23 | -13.53763 | -71.94228 | 10837 ft | 0 kts | 284° |
| 2026-04-26 16:23 | -13.53746 | -71.94232 | 10837 ft | 6 kts | 355° |
| 2026-04-26 16:23 | -13.53700 | -71.94212 | 10836 ft | 1 kts | 90° |
| 2026-04-26 16:24 | -13.53697 | -71.94209 | 10835 ft | 1 kts | 7° |
| 2026-04-26 16:24 | -13.53688 | -71.94225 | 10836 ft | 3 kts | 281° |
| 2026-04-26 16:24 | -13.53683 | -71.94257 | 10837 ft | 5 kts | 279° |
| 2026-04-26 16:24 | -13.53677 | -71.94306 | 10839 ft | 7 kts | 276° |
| 2026-04-26 16:25 | -13.53669 | -71.94365 | 10841 ft | 8 kts | 277° |
| 2026-04-26 16:25 | -13.53665 | -71.94408 | 10843 ft | 4 kts | 275° |
| 2026-04-26 16:25 | -13.53661 | -71.94447 | 10846 ft | 7 kts | 276° |
| 2026-04-26 16:25 | -13.53654 | -71.94518 | 10849 ft | 13 kts | 276° |
| 2026-04-26 16:26 | -13.53642 | -71.94626 | 10855 ft | 14 kts | 276° |
| 2026-04-26 16:26 | -13.53635 | -71.94685 | 10858 ft | 10 kts | 276° |
| 2026-04-26 16:26 | -13.53628 | -71.94757 | 10862 ft | 4 kts | 275° |
| 2026-04-26 16:26 | -13.53627 | -71.94771 | 10863 ft | 0 kts | 275° |
| 2026-04-26 16:27 | -13.53627 | -71.94767 | 10862 ft | 0 kts | 274° |
| 2026-04-26 16:27 | -13.53626 | -71.94777 | 10863 ft | 3 kts | 274° |
| 2026-04-26 16:27 | -13.53624 | -71.94813 | 10865 ft | 6 kts | 273° |
| 2026-04-26 16:27 | -13.53621 | -71.94862 | 10868 ft | 5 kts | 275° |
| 2026-04-26 16:28 | -13.53619 | -71.94886 | 10869 ft | 1 kts | 275° |
| 2026-04-26 16:28 | -13.53619 | -71.94888 | 10869 ft | 0 kts | 274° |
| 2026-04-26 16:29 | -13.53617 | -71.94913 | 10870 ft | 6 kts | 274° |
| 2026-04-26 16:29 | -13.53611 | -71.94983 | 10874 ft | 12 kts | 277° |
| 2026-04-26 16:29 | -13.53600 | -71.95061 | 10880 ft | 6 kts | 276° |
| 2026-04-26 16:30 | -13.53598 | -71.95082 | 10882 ft | 0 kts | 275° |
| 2026-04-26 16:30 | -13.53598 | -71.95087 | 10882 ft | 7 kts | 274° |
| 2026-04-26 16:30 | -13.53589 | -71.95165 | 10888 ft | 5 kts | 278° |
| 2026-04-26 16:30 | -13.53587 | -71.95176 | 10889 ft | 0 kts | 278° |
| 2026-04-26 16:31 | -13.53586 | -71.95184 | 10890 ft | 2 kts | 277° |
| 2026-04-26 16:31 | -13.53582 | -71.95210 | 10892 ft | 5 kts | 277° |
| 2026-04-26 16:31 | -13.53576 | -71.95258 | 10894 ft | 6 kts | 277° |
| 2026-04-26 16:31 | -13.53571 | -71.95300 | 10896 ft | 5 kts | 276° |
| 2026-04-26 16:32 | -13.53569 | -71.95325 | 10898 ft | 1 kts | 277° |
| 2026-04-26 16:32 | -13.53568 | -71.95326 | 10898 ft | 0 kts | 276° |
| 2026-04-26 16:32 | -13.53567 | -71.95332 | 10898 ft | 3 kts | 276° |
| 2026-04-26 16:32 | -13.53562 | -71.95378 | 10901 ft | 5 kts | 277° |
| 2026-04-26 16:33 | -13.53556 | -71.95400 | 10902 ft | 1 kts | 290° |
| 2026-04-26 16:33 | -13.53534 | -71.95430 | 10902 ft | 10 kts | 317° |
| 2026-04-26 16:33 | -13.53522 | -71.95438 | 10902 ft | 0 kts | 338° |
| 2026-04-26 16:33 | -13.53512 | -71.95442 | 10902 ft | 8 kts | 338° |
| 2026-04-26 16:34 | -13.53440 | -71.95431 | 10898 ft | 10 kts | 22° |
| 2026-04-26 16:34 | -13.53417 | -71.95402 | 10895 ft | 0 kts | 82° |
| 2026-04-26 16:34 | -13.53424 | -71.95258 | 10888 ft | 52 kts | 96° |
| 2026-04-26 16:34 | -13.53489 | -71.94656 | 10855 ft | 113 kts | 95° |
| 2026-04-26 16:35 | -13.53588 | -71.93703 | 10814 ft | 155 kts | 95° |
| 2026-04-26 16:35 | -13.53709 | -71.92481 | 10887 ft | 179 kts | 95° |
| 2026-04-26 16:35 | -13.53883 | -71.91153 | 11006 ft | 202 kts | 93° |
| 2026-04-26 16:35 | -13.54112 | -71.89647 | 11206 ft | 219 kts | 104° |
| 2026-04-26 16:36 | -13.54533 | -71.88132 | 11613 ft | 226 kts | 107° |
| 2026-04-26 16:36 | -13.55178 | -71.86593 | 11838 ft | 246 kts | 111° |
| 2026-04-26 16:36 | -13.55813 | -71.84917 | 12254 ft | 255 kts | 108° |
| 2026-04-26 16:36 | -13.56467 | -71.83159 | 12663 ft | 267 kts | 121° |
| 2026-04-26 16:37 | -13.57597 | -71.81593 | 13118 ft | 276 kts | 121° |
| 2026-04-26 16:37 | -13.58165 | -71.79719 | 13567 ft | 281 kts | 86° |
| 2026-04-26 16:37 | -13.57609 | -71.77803 | 14065 ft | 283 kts | 53° |
| 2026-04-26 16:37 | -13.56161 | -71.76411 | 14556 ft | 288 kts | 36° |
| 2026-04-26 16:38 | -13.54393 | -71.75315 | 14939 ft | 292 kts | 14° |
| 2026-04-26 16:38 | -13.52381 | -71.75267 | 15385 ft | 290 kts | 342° |
| 2026-04-26 16:38 | -13.50667 | -71.76300 | 15816 ft | 291 kts | 313° |
| 2026-04-26 16:38 | -13.49358 | -71.77900 | 16242 ft | 292 kts | 309° |
| 2026-04-26 16:39 | -13.48078 | -71.79550 | 16611 ft | 294 kts | 308° |
| 2026-04-26 16:39 | -13.46825 | -71.81184 | 16972 ft | 293 kts | 308° |
| 2026-04-26 16:39 | -13.45560 | -71.82916 | 17360 ft | 296 kts | 298° |
| 2026-04-26 16:39 | -13.44754 | -71.84873 | 17770 ft | 297 kts | 292° |
| 2026-04-26 16:40 | -13.44019 | -71.86852 | 18145 ft | 299 kts | 291° |
| 2026-04-26 16:40 | -13.43280 | -71.88850 | 18520 ft | 300 kts | 291° |
| 2026-04-26 16:40 | -13.42538 | -71.90861 | 18891 ft | 302 kts | 291° |
| 2026-04-26 16:40 | -13.41793 | -71.92879 | 19271 ft | 303 kts | 291° |
| 2026-04-26 16:41 | -13.41045 | -71.94907 | 19658 ft | 304 kts | 291° |
| 2026-04-26 16:41 | -13.40291 | -71.96950 | 20050 ft | 306 kts | 290° |
| 2026-04-26 16:41 | -13.39532 | -71.99006 | 20433 ft | 308 kts | 290° |
| 2026-04-26 16:41 | -13.38772 | -72.01062 | 20826 ft | 309 kts | 290° |
| 2026-04-26 16:42 | -13.38011 | -72.03120 | 21185 ft | 311 kts | 290° |
| 2026-04-26 16:42 | -13.37231 | -72.05230 | 21548 ft | 313 kts | 290° |
| 2026-04-26 16:42 | -13.36464 | -72.07306 | 21908 ft | 313 kts | 290° |
| 2026-04-26 16:42 | -13.35685 | -72.09413 | 22276 ft | 315 kts | 290° |
| 2026-04-26 16:43 | -13.34913 | -72.11501 | 22666 ft | 318 kts | 289° |
| 2026-04-26 16:43 | -13.34124 | -72.13635 | 23067 ft | 320 kts | 290° |
| 2026-04-26 16:43 | -13.33330 | -72.15781 | 23477 ft | 322 kts | 290° |
| 2026-04-26 16:43 | -13.32530 | -72.17943 | 23901 ft | 324 kts | 289° |
| 2026-04-26 16:44 | -13.31734 | -72.20093 | 24332 ft | 325 kts | 289° |
| 2026-04-26 16:44 | -13.30927 | -72.22274 | 24762 ft | 326 kts | 290° |
| 2026-04-26 16:44 | -13.30116 | -72.24461 | 25197 ft | 327 kts | 290° |
| 2026-04-26 16:44 | -13.29308 | -72.26643 | 25635 ft | 328 kts | 290° |
| 2026-04-26 16:45 | -13.28499 | -72.28825 | 26066 ft | 328 kts | 290° |
| 2026-04-26 16:45 | -13.27692 | -72.31002 | 26498 ft | 328 kts | 290° |
| 2026-04-26 16:45 | -13.26902 | -72.33131 | 26761 ft | 333 kts | 290° |
| 2026-04-26 16:45 | -13.26074 | -72.35365 | 26801 ft | 344 kts | 290° |
| 2026-04-26 16:46 | -13.25190 | -72.37747 | 26804 ft | 357 kts | 290° |
| 2026-04-26 16:46 | -13.24288 | -72.40175 | 26801 ft | 369 kts | 290° |
| 2026-04-26 16:46 | -13.23347 | -72.42708 | 26795 ft | 380 kts | 290° |
| 2026-04-26 16:46 | -13.22403 | -72.45247 | 26789 ft | 391 kts | 290° |
| 2026-04-26 16:47 | -13.21419 | -72.47896 | 26777 ft | 401 kts | 290° |
| 2026-04-26 16:47 | -13.20412 | -72.50604 | 26784 ft | 410 kts | 290° |
| 2026-04-26 16:47 | -13.19372 | -72.53401 | 26781 ft | 419 kts | 290° |
| 2026-04-26 16:47 | -13.18308 | -72.56260 | 26771 ft | 427 kts | 290° |
| 2026-04-26 16:48 | -13.17236 | -72.59141 | 26764 ft | 431 kts | 290° |
| 2026-04-26 16:48 | -13.16166 | -72.62013 | 26751 ft | 430 kts | 290° |
| 2026-04-26 16:48 | -13.15098 | -72.64880 | 26743 ft | 428 kts | 290° |
| 2026-04-26 16:48 | -13.14035 | -72.67733 | 26753 ft | 428 kts | 290° |
| 2026-04-26 16:49 | -13.12975 | -72.70576 | 26747 ft | 429 kts | 290° |
| 2026-04-26 16:49 | -13.11901 | -72.73457 | 26737 ft | 430 kts | 290° |
| 2026-04-26 16:49 | -13.10835 | -72.76314 | 26735 ft | 428 kts | 290° |
| 2026-04-26 16:49 | -13.09857 | -72.79241 | 26706 ft | 430 kts | 283° |
| 2026-04-26 16:50 | -13.09176 | -72.82240 | 26725 ft | 429 kts | 283° |
| 2026-04-26 16:50 | -13.08491 | -72.85264 | 26724 ft | 428 kts | 283° |
| 2026-04-26 16:50 | -13.07821 | -72.88236 | 26717 ft | 427 kts | 283° |
| 2026-04-26 16:50 | -13.07142 | -72.91245 | 26716 ft | 428 kts | 283° |
| 2026-04-26 16:51 | -13.06465 | -72.94253 | 26714 ft | 430 kts | 283° |
| 2026-04-26 16:51 | -13.05791 | -72.97240 | 26708 ft | 429 kts | 283° |
| 2026-04-26 16:51 | -13.05112 | -73.00250 | 26717 ft | 427 kts | 283° |
| 2026-04-26 16:51 | -13.04436 | -73.03247 | 26712 ft | 430 kts | 283° |
| 2026-04-26 16:52 | -13.03758 | -73.06251 | 26717 ft | 430 kts | 283° |
| 2026-04-26 16:52 | -13.03304 | -73.08257 | 26723 ft | 430 kts | 283° |
| 2026-04-26 16:52 | -13.02397 | -73.12270 | 26726 ft | 427 kts | 283° |
| 2026-04-26 16:52 | -13.01720 | -73.15263 | 26731 ft | 429 kts | 283° |
| 2026-04-26 16:53 | -13.01043 | -73.18252 | 26732 ft | 429 kts | 283° |
| 2026-04-26 16:53 | -13.00365 | -73.21245 | 26739 ft | 429 kts | 283° |
| 2026-04-26 16:53 | -12.99681 | -73.24264 | 26742 ft | 430 kts | 283° |
| 2026-04-26 16:53 | -12.99003 | -73.27257 | 26738 ft | 430 kts | 283° |
| 2026-04-26 16:54 | -12.98325 | -73.30246 | 26722 ft | 428 kts | 283° |
| 2026-04-26 16:54 | -12.97649 | -73.33224 | 26700 ft | 428 kts | 283° |
| 2026-04-26 16:54 | -12.96966 | -73.36229 | 26707 ft | 429 kts | 283° |
| 2026-04-26 16:54 | -12.96290 | -73.39204 | 26682 ft | 429 kts | 283° |
| 2026-04-26 16:55 | -12.95611 | -73.42192 | 26663 ft | 428 kts | 283° |
| 2026-04-26 16:55 | -12.94935 | -73.45164 | 26665 ft | 429 kts | 283° |
| 2026-04-26 16:55 | -12.94254 | -73.48155 | 26627 ft | 430 kts | 283° |
| 2026-04-26 16:55 | -12.93570 | -73.51157 | 26585 ft | 430 kts | 283° |
| 2026-04-26 16:56 | -12.92199 | -73.57176 | 26627 ft | 430 kts | 283° |
| 2026-04-26 16:56 | -12.91514 | -73.60179 | 26632 ft | 431 kts | 283° |
| 2026-04-26 16:56 | -12.90839 | -73.63134 | 26637 ft | 431 kts | 283° |
| 2026-04-26 16:57 | -12.90153 | -73.66141 | 26650 ft | 429 kts | 283° |
| 2026-04-26 16:57 | -12.89472 | -73.69118 | 26676 ft | 430 kts | 283° |
| 2026-04-26 16:57 | -12.88099 | -73.75122 | 26631 ft | 430 kts | 283° |
| 2026-04-26 16:58 | -12.87415 | -73.78114 | 26660 ft | 430 kts | 283° |
| 2026-04-26 16:58 | -12.86955 | -73.80121 | 26674 ft | 431 kts | 283° |
| 2026-04-26 16:58 | -12.85355 | -73.87104 | 26652 ft | 429 kts | 283° |
| 2026-04-26 16:59 | -12.84674 | -73.90074 | 26643 ft | 430 kts | 283° |
| 2026-04-26 16:59 | -12.83305 | -73.96036 | 26682 ft | 430 kts | 284° |
| 2026-04-26 17:00 | -12.81935 | -74.01999 | 26695 ft | 430 kts | 283° |
| 2026-04-26 17:00 | -12.80562 | -74.07965 | 26680 ft | 431 kts | 284° |
| 2026-04-26 17:00 | -12.79874 | -74.10953 | 26690 ft | 429 kts | 283° |
| 2026-04-26 17:01 | -12.79193 | -74.13910 | 26706 ft | 431 kts | 284° |
| 2026-04-26 17:01 | -12.78499 | -74.16921 | 26766 ft | 430 kts | 283° |
| 2026-04-26 17:01 | -12.77809 | -74.19913 | 26747 ft | 431 kts | 283° |
| 2026-04-26 17:01 | -12.77125 | -74.22876 | 26737 ft | 430 kts | 283° |
| 2026-04-26 17:02 | -12.76434 | -74.25868 | 26757 ft | 429 kts | 283° |
| 2026-04-26 17:02 | -12.75741 | -74.28867 | 26763 ft | 432 kts | 284° |
| 2026-04-26 17:02 | -12.75098 | -74.31653 | 26763 ft | 429 kts | 283° |
| 2026-04-26 17:02 | -12.74398 | -74.34676 | 26790 ft | 430 kts | 283° |
| 2026-04-26 17:03 | -12.73704 | -74.37678 | 26814 ft | 432 kts | 283° |
| 2026-04-26 17:03 | -12.73010 | -74.40676 | 26850 ft | 431 kts | 283° |
| 2026-04-26 17:03 | -12.72315 | -74.43675 | 26867 ft | 431 kts | 283° |
| 2026-04-26 17:03 | -12.71611 | -74.46716 | 26851 ft | 431 kts | 283° |
| 2026-04-26 17:04 | -12.70916 | -74.49711 | 26836 ft | 431 kts | 283° |
| 2026-04-26 17:04 | -12.70219 | -74.52713 | 26852 ft | 431 kts | 283° |
| 2026-04-26 17:04 | -12.69528 | -74.55692 | 26899 ft | 431 kts | 283° |
| 2026-04-26 17:04 | -12.68829 | -74.58701 | 26918 ft | 432 kts | 283° |
| 2026-04-26 17:05 | -12.68127 | -74.61723 | 26904 ft | 431 kts | 283° |
| 2026-04-26 17:05 | -12.67427 | -74.64735 | 26902 ft | 432 kts | 283° |
| 2026-04-26 17:05 | -12.66721 | -74.67770 | 26912 ft | 431 kts | 284° |
| 2026-04-26 17:05 | -12.66022 | -74.70773 | 26938 ft | 431 kts | 284° |
| 2026-04-26 17:06 | -12.65313 | -74.73818 | 26962 ft | 431 kts | 284° |
| 2026-04-26 17:06 | -12.64608 | -74.76843 | 26952 ft | 433 kts | 284° |
| 2026-04-26 17:06 | -12.63905 | -74.79859 | 26960 ft | 432 kts | 284° |
| 2026-04-26 17:06 | -12.63193 | -74.82912 | 26972 ft | 432 kts | 284° |
| 2026-04-26 17:07 | -12.62482 | -74.85955 | 26981 ft | 430 kts | 284° |
| 2026-04-26 17:07 | -12.61766 | -74.89022 | 27002 ft | 430 kts | 284° |
| 2026-04-26 17:07 | -12.61050 | -74.92087 | 27016 ft | 430 kts | 284° |
| 2026-04-26 17:07 | -12.60349 | -74.95086 | 27013 ft | 431 kts | 284° |
| 2026-04-26 17:08 | -12.59650 | -74.98075 | 27012 ft | 432 kts | 284° |
| 2026-04-26 17:08 | -12.58944 | -75.01093 | 27016 ft | 431 kts | 284° |
| 2026-04-26 17:08 | -12.58246 | -75.04073 | 27021 ft | 431 kts | 284° |
| 2026-04-26 17:08 | -12.57541 | -75.07085 | 27005 ft | 431 kts | 284° |
| 2026-04-26 17:09 | -12.56846 | -75.10050 | 26989 ft | 432 kts | 284° |
| 2026-04-26 17:09 | -12.56366 | -75.12095 | 26984 ft | 433 kts | 284° |
| 2026-04-26 17:09 | -12.55430 | -75.16083 | 26979 ft | 431 kts | 284° |
| 2026-04-26 17:09 | -12.54725 | -75.19087 | 26973 ft | 431 kts | 284° |
| 2026-04-26 17:10 | -12.54030 | -75.22048 | 26965 ft | 432 kts | 284° |
| 2026-04-26 17:10 | -12.53319 | -75.25074 | 26953 ft | 432 kts | 284° |
| 2026-04-26 17:10 | -12.52610 | -75.28087 | 26956 ft | 432 kts | 284° |
| 2026-04-26 17:10 | -12.51901 | -75.31100 | 26953 ft | 431 kts | 284° |
| 2026-04-26 17:11 | -12.51205 | -75.34061 | 26956 ft | 431 kts | 284° |
| 2026-04-26 17:11 | -12.50496 | -75.37071 | 26957 ft | 431 kts | 284° |
| 2026-04-26 17:11 | -12.49788 | -75.40074 | 26959 ft | 431 kts | 284° |
| 2026-04-26 17:11 | -12.49086 | -75.43051 | 26945 ft | 431 kts | 284° |
| 2026-04-26 17:12 | -12.47678 | -75.49021 | 26952 ft | 431 kts | 284° |
| 2026-04-26 17:12 | -12.46966 | -75.52035 | 26950 ft | 432 kts | 284° |
| 2026-04-26 17:13 | -12.45553 | -75.58016 | 26957 ft | 431 kts | 284° |
| 2026-04-26 17:13 | -12.44855 | -75.60968 | 26956 ft | 431 kts | 284° |
| 2026-04-26 17:13 | -12.43432 | -75.66980 | 26963 ft | 432 kts | 284° |
| 2026-04-26 17:14 | -12.42725 | -75.69966 | 26947 ft | 432 kts | 284° |
| 2026-04-26 17:14 | -12.41306 | -75.75954 | 26940 ft | 431 kts | 284° |
| 2026-04-26 17:14 | -12.40592 | -75.78964 | 26947 ft | 431 kts | 284° |
| 2026-04-26 17:15 | -12.39138 | -75.85090 | 26953 ft | 433 kts | 284° |